sensor_id;sensor_type;location;lat;lon;timestamp;temperature;humidity
4673;DHT22;61885;53.560;9.940;2023-04-03T00:00:43;1.40;95.30
4673;DHT22;61885;53.560;9.940;2023-04-03T00:03:17;1.30;97.60
4673;DHT22;61885;53.560;9.940;2023-04-03T00:05:47;1.40;98.40
4673;DHT22;61885;53.560;9.940;2023-04-03T00:08:17;1.40;98.50
4673;DHT22;61885;53.560;9.940;2023-04-03T00:10:48;1.40;98.40
4673;DHT22;61885;53.560;9.940;2023-04-03T00:13:19;1.40;98.20
4673;DHT22;61885;53.560;9.940;2023-04-03T00:15:49;1.40;98.10
4673;DHT22;61885;53.560;9.940;2023-04-03T00:18:23;1.60;97.30
4673;DHT22;61885;53.560;9.940;2023-04-03T00:20:53;1.70;96.10
4673;DHT22;61885;53.560;9.940;2023-04-03T00:23:25;1.60;96.40
4673;DHT22;61885;53.560;9.940;2023-04-03T00:25:54;1.60;95.70
4673;DHT22;61885;53.560;9.940;2023-04-03T00:28:26;1.50;96.20
4673;DHT22;61885;53.560;9.940;2023-04-03T00:30:56;1.40;97.00
4673;DHT22;61885;53.560;9.940;2023-04-03T00:33:29;1.40;98.00
4673;DHT22;61885;53.560;9.940;2023-04-03T00:35:58;1.60;97.20
4673;DHT22;61885;53.560;9.940;2023-04-03T00:38:28;1.70;95.90
4673;DHT22;61885;53.560;9.940;2023-04-03T00:40:57;1.70;95.10
4673;DHT22;61885;53.560;9.940;2023-04-03T00:43:27;1.80;94.00
4673;DHT22;61885;53.560;9.940;2023-04-03T00:45:58;1.80;93.50
4673;DHT22;61885;53.560;9.940;2023-04-03T00:48:32;1.90;91.90
4673;DHT22;61885;53.560;9.940;2023-04-03T00:51:02;1.60;91.50
4673;DHT22;61885;53.560;9.940;2023-04-03T00:53:37;1.40;93.50
4673;DHT22;61885;53.560;9.940;2023-04-03T00:56:12;1.50;94.20
4673;DHT22;61885;53.560;9.940;2023-04-03T00:58:46;1.40;94.70
4673;DHT22;61885;53.560;9.940;2023-04-03T01:01:22;1.40;96.10
4673;DHT22;61885;53.560;9.940;2023-04-03T01:03:55;1.30;94.70
4673;DHT22;61885;53.560;9.940;2023-04-03T01:06:27;1.40;95.50
4673;DHT22;61885;53.560;9.940;2023-04-03T01:08:58;1.30;95.10
4673;DHT22;61885;53.560;9.940;2023-04-03T01:11:28;1.30;96.10
4673;DHT22;61885;53.560;9.940;2023-04-03T01:13:57;1.40;96.00
4673;DHT22;61885;53.560;9.940;2023-04-03T01:16:28;1.30;96.00
4673;DHT22;61885;53.560;9.940;2023-04-03T01:19:03;1.30;96.30
4673;DHT22;61885;53.560;9.940;2023-04-03T01:22:05;1.40;96.70
4673;DHT22;61885;53.560;9.940;2023-04-03T01:24:38;1.30;95.90
4673;DHT22;61885;53.560;9.940;2023-04-03T01:27:10;1.30;95.90
4673;DHT22;61885;53.560;9.940;2023-04-03T01:29:40;1.30;95.60
4673;DHT22;61885;53.560;9.940;2023-04-03T01:32:13;1.30;95.30
4673;DHT22;61885;53.560;9.940;2023-04-03T01:34:43;1.40;96.80
4673;DHT22;61885;53.560;9.940;2023-04-03T01:37:12;1.40;94.90
4673;DHT22;61885;53.560;9.940;2023-04-03T01:39:42;1.30;95.00
4673;DHT22;61885;53.560;9.940;2023-04-03T01:42:11;1.30;95.10
4673;DHT22;61885;53.560;9.940;2023-04-03T01:44:42;1.20;95.00
4673;DHT22;61885;53.560;9.940;2023-04-03T01:47:15;1.30;96.10
4673;DHT22;61885;53.560;9.940;2023-04-03T01:49:44;1.20;95.60
4673;DHT22;61885;53.560;9.940;2023-04-03T01:52:14;1.30;96.00
4673;DHT22;61885;53.560;9.940;2023-04-03T01:54:44;1.20;96.10
4673;DHT22;61885;53.560;9.940;2023-04-03T01:57:17;1.20;96.60
4673;DHT22;61885;53.560;9.940;2023-04-03T01:59:48;1.20;95.90
4673;DHT22;61885;53.560;9.940;2023-04-03T02:02:20;1.20;97.00
4673;DHT22;61885;53.560;9.940;2023-04-03T02:04:50;1.20;96.50
4673;DHT22;61885;53.560;9.940;2023-04-03T02:07:21;1.20;96.70
4673;DHT22;61885;53.560;9.940;2023-04-03T02:09:51;1.40;95.90
4673;DHT22;61885;53.560;9.940;2023-04-03T02:12:23;1.40;95.00
4673;DHT22;61885;53.560;9.940;2023-04-03T02:14:53;1.30;94.30
4673;DHT22;61885;53.560;9.940;2023-04-03T02:17:25;1.30;95.20
4673;DHT22;61885;53.560;9.940;2023-04-03T02:19:55;1.30;95.90
4673;DHT22;61885;53.560;9.940;2023-04-03T02:22:24;1.20;96.10
4673;DHT22;61885;53.560;9.940;2023-04-03T02:24:54;1.10;96.70
4673;DHT22;61885;53.560;9.940;2023-04-03T02:27:23;1.00;97.00
4673;DHT22;61885;53.560;9.940;2023-04-03T02:29:53;0.90;98.00
4673;DHT22;61885;53.560;9.940;2023-04-03T02:32:26;0.90;99.30
4673;DHT22;61885;53.560;9.940;2023-04-03T02:34:58;0.80;99.90
4673;DHT22;61885;53.560;9.940;2023-04-03T02:37:28;0.80;99.90
4673;DHT22;61885;53.560;9.940;2023-04-03T02:39:58;0.80;99.90
4673;DHT22;61885;53.560;9.940;2023-04-03T02:42:27;0.80;99.90
4673;DHT22;61885;53.560;9.940;2023-04-03T02:44:57;0.80;99.90
4673;DHT22;61885;53.560;9.940;2023-04-03T02:47:30;0.70;99.90
4673;DHT22;61885;53.560;9.940;2023-04-03T02:49:59;0.70;99.90
4673;DHT22;61885;53.560;9.940;2023-04-03T02:52:29;0.70;99.90
4673;DHT22;61885;53.560;9.940;2023-04-03T02:54:59;0.60;99.90
4673;DHT22;61885;53.560;9.940;2023-04-03T02:57:32;0.60;99.90
4673;DHT22;61885;53.560;9.940;2023-04-03T03:00:03;0.50;99.90
4673;DHT22;61885;53.560;9.940;2023-04-03T03:02:48;0.50;99.90
4673;DHT22;61885;53.560;9.940;2023-04-03T03:05:21;0.50;99.90
4673;DHT22;61885;53.560;9.940;2023-04-03T03:07:52;0.40;99.90
4673;DHT22;61885;53.560;9.940;2023-04-03T03:10:22;0.50;99.90
4673;DHT22;61885;53.560;9.940;2023-04-03T03:12:52;0.60;99.90
4673;DHT22;61885;53.560;9.940;2023-04-03T03:15:24;0.60;99.90
4673;DHT22;61885;53.560;9.940;2023-04-03T03:17:57;0.60;99.90
4673;DHT22;61885;53.560;9.940;2023-04-03T03:20:27;0.50;99.90
4673;DHT22;61885;53.560;9.940;2023-04-03T03:22:57;0.50;99.90
4673;DHT22;61885;53.560;9.940;2023-04-03T03:25:26;0.50;99.90
4673;DHT22;61885;53.560;9.940;2023-04-03T03:27:56;0.50;99.90
4673;DHT22;61885;53.560;9.940;2023-04-03T03:30:26;0.40;99.90
4673;DHT22;61885;53.560;9.940;2023-04-03T03:32:58;0.30;99.90
4673;DHT22;61885;53.560;9.940;2023-04-03T03:35:28;0.40;99.90
4673;DHT22;61885;53.560;9.940;2023-04-03T03:37:57;0.60;99.90
4673;DHT22;61885;53.560;9.940;2023-04-03T03:40:27;0.60;99.90
4673;DHT22;61885;53.560;9.940;2023-04-03T03:42:56;0.60;99.90
4673;DHT22;61885;53.560;9.940;2023-04-03T03:45:28;0.30;99.90
4673;DHT22;61885;53.560;9.940;2023-04-03T03:48:00;0.40;99.90
4673;DHT22;61885;53.560;9.940;2023-04-03T03:50:30;0.40;99.90
4673;DHT22;61885;53.560;9.940;2023-04-03T03:53:00;0.50;99.90
4673;DHT22;61885;53.560;9.940;2023-04-03T03:55:30;0.40;99.90
4673;DHT22;61885;53.560;9.940;2023-04-03T03:57:59;0.40;99.90
4673;DHT22;61885;53.560;9.940;2023-04-03T04:00:30;0.40;99.90
4673;DHT22;61885;53.560;9.940;2023-04-03T04:03:03;0.30;99.90
4673;DHT22;61885;53.560;9.940;2023-04-03T04:05:32;0.30;99.90
4673;DHT22;61885;53.560;9.940;2023-04-03T04:08:03;0.30;99.90
4673;DHT22;61885;53.560;9.940;2023-04-03T04:10:33;0.40;99.90
4673;DHT22;61885;53.560;9.940;2023-04-03T04:13:02;0.50;99.90
4673;DHT22;61885;53.560;9.940;2023-04-03T04:15:32;0.60;99.90
4673;DHT22;61885;53.560;9.940;2023-04-03T04:18:04;0.60;99.90
4673;DHT22;61885;53.560;9.940;2023-04-03T04:20:34;0.60;99.90
4673;DHT22;61885;53.560;9.940;2023-04-03T04:23:04;0.60;99.90
4673;DHT22;61885;53.560;9.940;2023-04-03T04:25:33;0.40;99.90
4673;DHT22;61885;53.560;9.940;2023-04-03T04:28:05;0.50;99.90
4673;DHT22;61885;53.560;9.940;2023-04-03T04:30:35;0.40;99.90
4673;DHT22;61885;53.560;9.940;2023-04-03T04:33:09;0.40;99.90
4673;DHT22;61885;53.560;9.940;2023-04-03T04:35:42;0.40;99.90
4673;DHT22;61885;53.560;9.940;2023-04-03T04:38:13;0.30;99.90
4673;DHT22;61885;53.560;9.940;2023-04-03T04:40:44;0.40;99.90
4673;DHT22;61885;53.560;9.940;2023-04-03T04:43:14;0.50;99.90
4673;DHT22;61885;53.560;9.940;2023-04-03T04:45:46;0.40;99.90
4673;DHT22;61885;53.560;9.940;2023-04-03T04:48:20;0.40;99.90
4673;DHT22;61885;53.560;9.940;2023-04-03T04:50:49;0.40;99.90
4673;DHT22;61885;53.560;9.940;2023-04-03T04:53:21;0.40;99.90
4673;DHT22;61885;53.560;9.940;2023-04-03T04:55:52;0.30;99.90
4673;DHT22;61885;53.560;9.940;2023-04-03T04:58:25;0.30;99.90
4673;DHT22;61885;53.560;9.940;2023-04-03T05:01:00;0.30;99.90
4673;DHT22;61885;53.560;9.940;2023-04-03T05:03:36;0.20;99.90
4673;DHT22;61885;53.560;9.940;2023-04-03T05:06:08;0.40;99.90
4673;DHT22;61885;53.560;9.940;2023-04-03T05:08:37;0.20;99.90
4673;DHT22;61885;53.560;9.940;2023-04-03T05:11:12;0.10;99.90
4673;DHT22;61885;53.560;9.940;2023-04-03T05:13:44;0.40;99.90
4673;DHT22;61885;53.560;9.940;2023-04-03T05:16:15;0.50;99.90
4673;DHT22;61885;53.560;9.940;2023-04-03T05:18:47;0.60;99.90
4673;DHT22;61885;53.560;9.940;2023-04-03T05:21:18;0.60;99.90
4673;DHT22;61885;53.560;9.940;2023-04-03T05:23:50;0.70;99.90
4673;DHT22;61885;53.560;9.940;2023-04-03T05:26:21;0.60;99.90
4673;DHT22;61885;53.560;9.940;2023-04-03T05:28:53;0.40;99.90
4673;DHT22;61885;53.560;9.940;2023-04-03T05:31:23;0.40;99.90
4673;DHT22;61885;53.560;9.940;2023-04-03T05:33:58;0.40;99.90
4673;DHT22;61885;53.560;9.940;2023-04-03T05:36:30;0.50;99.90
4673;DHT22;61885;53.560;9.940;2023-04-03T05:39:01;0.50;99.90
4673;DHT22;61885;53.560;9.940;2023-04-03T05:41:31;0.60;99.90
4673;DHT22;61885;53.560;9.940;2023-04-03T05:44:01;0.60;99.90
4673;DHT22;61885;53.560;9.940;2023-04-03T05:46:30;0.60;99.90
4673;DHT22;61885;53.560;9.940;2023-04-03T05:49:03;0.60;99.90
4673;DHT22;61885;53.560;9.940;2023-04-03T05:51:35;0.80;99.90
4673;DHT22;61885;53.560;9.940;2023-04-03T05:54:11;0.80;99.90
4673;DHT22;61885;53.560;9.940;2023-04-03T05:56:42;0.90;99.90
4673;DHT22;61885;53.560;9.940;2023-04-03T05:59:12;0.90;99.90
4673;DHT22;61885;53.560;9.940;2023-04-03T06:01:42;1.00;99.90
4673;DHT22;61885;53.560;9.940;2023-04-03T06:04:18;1.10;99.90
4673;DHT22;61885;53.560;9.940;2023-04-03T06:06:51;1.10;99.90
4673;DHT22;61885;53.560;9.940;2023-04-03T06:09:24;1.20;99.90
4673;DHT22;61885;53.560;9.940;2023-04-03T06:11:57;1.20;99.90
4673;DHT22;61885;53.560;9.940;2023-04-03T06:14:27;1.30;99.90
4673;DHT22;61885;53.560;9.940;2023-04-03T06:16:57;1.40;99.90
4673;DHT22;61885;53.560;9.940;2023-04-03T06:19:31;1.50;99.90
4673;DHT22;61885;53.560;9.940;2023-04-03T06:22:00;1.50;99.90
4673;DHT22;61885;53.560;9.940;2023-04-03T06:24:31;1.60;99.10
4673;DHT22;61885;53.560;9.940;2023-04-03T06:27:02;1.70;98.40
4673;DHT22;61885;53.560;9.940;2023-04-03T06:29:34;1.80;95.50
4673;DHT22;61885;53.560;9.940;2023-04-03T06:32:04;1.90;92.70
4673;DHT22;61885;53.560;9.940;2023-04-03T06:34:37;1.90;90.90
4673;DHT22;61885;53.560;9.940;2023-04-03T06:37:12;1.90;89.00
4673;DHT22;61885;53.560;9.940;2023-04-03T06:39:52;2.00;84.30
4673;DHT22;61885;53.560;9.940;2023-04-03T06:42:24;2.10;82.60
4673;DHT22;61885;53.560;9.940;2023-04-03T06:44:54;2.20;78.50
4673;DHT22;61885;53.560;9.940;2023-04-03T06:47:24;2.30;76.20
4673;DHT22;61885;53.560;9.940;2023-04-03T06:49:57;2.30;73.30
4673;DHT22;61885;53.560;9.940;2023-04-03T06:52:38;2.40;68.40
4673;DHT22;61885;53.560;9.940;2023-04-03T06:55:08;2.50;64.70
4673;DHT22;61885;53.560;9.940;2023-04-03T06:57:42;2.60;62.40
4673;DHT22;61885;53.560;9.940;2023-04-03T07:00:15;2.70;62.20
4673;DHT22;61885;53.560;9.940;2023-04-03T07:02:45;2.80;59.30
4673;DHT22;61885;53.560;9.940;2023-04-03T07:05:18;2.80;56.20
4673;DHT22;61885;53.560;9.940;2023-04-03T07:07:48;2.90;55.50
4673;DHT22;61885;53.560;9.940;2023-04-03T07:10:19;2.90;55.10
4673;DHT22;61885;53.560;9.940;2023-04-03T07:12:51;3.10;49.70
4673;DHT22;61885;53.560;9.940;2023-04-03T07:15:21;3.20;48.40
4673;DHT22;61885;53.560;9.940;2023-04-03T07:17:53;3.20;46.50
4673;DHT22;61885;53.560;9.940;2023-04-03T07:20:25;3.30;43.80
4673;DHT22;61885;53.560;9.940;2023-04-03T07:22:55;3.40;42.20
4673;DHT22;61885;53.560;9.940;2023-04-03T07:25:25;3.50;38.70
4673;DHT22;61885;53.560;9.940;2023-04-03T07:27:57;3.60;37.70
4673;DHT22;61885;53.560;9.940;2023-04-03T07:30:29;3.60;33.90
4673;DHT22;61885;53.560;9.940;2023-04-03T07:32:59;3.70;33.10
4673;DHT22;61885;53.560;9.940;2023-04-03T07:35:32;3.70;31.30
4673;DHT22;61885;53.560;9.940;2023-04-03T07:38:02;3.80;30.00
4673;DHT22;61885;53.560;9.940;2023-04-03T07:40:32;4.00;26.40
4673;DHT22;61885;53.560;9.940;2023-04-03T07:43:04;4.00;26.70
4673;DHT22;61885;53.560;9.940;2023-04-03T07:45:37;4.10;25.00
4673;DHT22;61885;53.560;9.940;2023-04-03T07:48:06;4.10;26.10
4673;DHT22;61885;53.560;9.940;2023-04-03T07:50:40;4.20;26.10
4673;DHT22;61885;53.560;9.940;2023-04-03T07:53:10;4.20;25.70
4673;DHT22;61885;53.560;9.940;2023-04-03T07:55:40;4.20;25.30
4673;DHT22;61885;53.560;9.940;2023-04-03T07:58:13;4.20;24.80
4673;DHT22;61885;53.560;9.940;2023-04-03T08:00:44;4.20;25.00
4673;DHT22;61885;53.560;9.940;2023-04-03T08:03:15;4.20;24.50
4673;DHT22;61885;53.560;9.940;2023-04-03T08:05:49;4.30;24.00
4673;DHT22;61885;53.560;9.940;2023-04-03T08:08:21;4.40;22.60
4673;DHT22;61885;53.560;9.940;2023-04-03T08:10:53;4.40;19.70
4673;DHT22;61885;53.560;9.940;2023-04-03T08:13:22;4.40;18.40
4673;DHT22;61885;53.560;9.940;2023-04-03T08:15:52;4.50;17.20
4673;DHT22;61885;53.560;9.940;2023-04-03T08:18:24;4.60;14.50
4673;DHT22;61885;53.560;9.940;2023-04-03T08:20:58;4.60;14.50
4673;DHT22;61885;53.560;9.940;2023-04-03T08:23:40;4.70;12.80
4673;DHT22;61885;53.560;9.940;2023-04-03T08:26:22;4.70;10.90
4673;DHT22;61885;53.560;9.940;2023-04-03T08:28:53;4.70;10.20
4673;DHT22;61885;53.560;9.940;2023-04-03T08:31:23;4.80;8.10
4673;DHT22;61885;53.560;9.940;2023-04-03T08:33:53;4.90;6.50
4673;DHT22;61885;53.560;9.940;2023-04-03T08:36:27;4.90;5.70
4673;DHT22;61885;53.560;9.940;2023-04-03T08:39:00;4.90;2.50
4673;DHT22;61885;53.560;9.940;2023-04-03T08:41:34;5.00;1.00
4673;DHT22;61885;53.560;9.940;2023-04-03T08:44:14;5.00;1.00
4673;DHT22;61885;53.560;9.940;2023-04-03T08:47:02;5.00;1.00
4673;DHT22;61885;53.560;9.940;2023-04-03T08:49:35;5.00;1.00
4673;DHT22;61885;53.560;9.940;2023-04-03T08:52:21;5.10;1.00
4673;DHT22;61885;53.560;9.940;2023-04-03T08:55:10;5.20;1.00
4673;DHT22;61885;53.560;9.940;2023-04-03T08:57:45;5.20;1.00
4673;DHT22;61885;53.560;9.940;2023-04-03T09:00:19;5.20;1.00
4673;DHT22;61885;53.560;9.940;2023-04-03T09:02:50;5.30;1.00
4673;DHT22;61885;53.560;9.940;2023-04-03T09:05:28;5.40;1.00
4673;DHT22;61885;53.560;9.940;2023-04-03T09:08:06;5.40;1.00
4673;DHT22;61885;53.560;9.940;2023-04-03T09:10:38;5.50;1.00
4673;DHT22;61885;53.560;9.940;2023-04-03T09:13:17;5.40;1.00
4673;DHT22;61885;53.560;9.940;2023-04-03T09:15:49;5.40;1.00
4673;DHT22;61885;53.560;9.940;2023-04-03T09:18:26;5.40;1.00
4673;DHT22;61885;53.560;9.940;2023-04-03T09:21:07;5.40;1.00
4673;DHT22;61885;53.560;9.940;2023-04-03T09:23:44;5.50;1.00
4673;DHT22;61885;53.560;9.940;2023-04-03T09:26:18;5.40;1.00
4673;DHT22;61885;53.560;9.940;2023-04-03T09:28:48;5.40;1.00
4673;DHT22;61885;53.560;9.940;2023-04-03T09:31:22;5.60;1.00
4673;DHT22;61885;53.560;9.940;2023-04-03T09:33:55;5.80;1.00
4673;DHT22;61885;53.560;9.940;2023-04-03T09:36:40;5.80;1.00
4673;DHT22;61885;53.560;9.940;2023-04-03T09:39:15;5.80;1.00
4673;DHT22;61885;53.560;9.940;2023-04-03T09:41:59;5.70;1.00
4673;DHT22;61885;53.560;9.940;2023-04-03T09:44:32;5.70;1.00
4673;DHT22;61885;53.560;9.940;2023-04-03T09:47:18;5.80;1.00
4673;DHT22;61885;53.560;9.940;2023-04-03T09:49:48;6.10;1.00
4673;DHT22;61885;53.560;9.940;2023-04-03T09:55:28;6.20;1.00
4673;DHT22;61885;53.560;9.940;2023-04-03T09:58:02;6.30;1.00
4673;DHT22;61885;53.560;9.940;2023-04-03T10:00:36;6.20;1.00
4673;DHT22;61885;53.560;9.940;2023-04-03T10:03:24;6.30;1.00
4673;DHT22;61885;53.560;9.940;2023-04-03T10:05:57;6.50;1.00
4673;DHT22;61885;53.560;9.940;2023-04-03T10:08:30;6.60;1.00
4673;DHT22;61885;53.560;9.940;2023-04-03T10:11:31;6.70;1.00
4673;DHT22;61885;53.560;9.940;2023-04-03T10:14:02;6.60;1.00
4673;DHT22;61885;53.560;9.940;2023-04-03T10:16:37;6.50;1.00
4673;DHT22;61885;53.560;9.940;2023-04-03T10:19:36;6.60;1.00
4673;DHT22;61885;53.560;9.940;2023-04-03T10:22:21;6.40;1.00
4673;DHT22;61885;53.560;9.940;2023-04-03T10:25:03;6.40;1.00
4673;DHT22;61885;53.560;9.940;2023-04-03T10:27:44;6.30;1.00
4673;DHT22;61885;53.560;9.940;2023-04-03T10:30:26;6.40;1.00
4673;DHT22;61885;53.560;9.940;2023-04-03T10:36:07;6.50;1.00
4673;DHT22;61885;53.560;9.940;2023-04-03T10:38:46;6.50;1.00
4673;DHT22;61885;53.560;9.940;2023-04-03T10:41:22;6.60;1.00
4673;DHT22;61885;53.560;9.940;2023-04-03T10:44:05;6.80;1.00
4673;DHT22;61885;53.560;9.940;2023-04-03T10:46:41;6.90;1.00
4673;DHT22;61885;53.560;9.940;2023-04-03T10:49:22;7.00;1.00
4673;DHT22;61885;53.560;9.940;2023-04-03T10:52:00;7.00;1.00
4673;DHT22;61885;53.560;9.940;2023-04-03T10:54:37;7.00;1.00
4673;DHT22;61885;53.560;9.940;2023-04-03T10:57:09;6.90;1.00
4673;DHT22;61885;53.560;9.940;2023-04-03T10:59:45;7.00;1.00
4673;DHT22;61885;53.560;9.940;2023-04-03T11:02:22;7.00;1.00
4673;DHT22;61885;53.560;9.940;2023-04-03T11:04:56;7.10;1.00
4673;DHT22;61885;53.560;9.940;2023-04-03T11:07:34;7.30;1.00
4673;DHT22;61885;53.560;9.940;2023-04-03T11:10:11;7.40;1.00
4673;DHT22;61885;53.560;9.940;2023-04-03T11:12:44;7.30;1.00
4673;DHT22;61885;53.560;9.940;2023-04-03T11:15:19;7.40;1.00
4673;DHT22;61885;53.560;9.940;2023-04-03T11:17:53;7.50;1.00
4673;DHT22;61885;53.560;9.940;2023-04-03T11:20:29;7.60;1.00
4673;DHT22;61885;53.560;9.940;2023-04-03T11:23:02;7.60;1.00
4673;DHT22;61885;53.560;9.940;2023-04-03T11:25:35;7.60;1.00
4673;DHT22;61885;53.560;9.940;2023-04-03T11:28:12;7.80;1.00
4673;DHT22;61885;53.560;9.940;2023-04-03T11:30:50;7.70;1.00
4673;DHT22;61885;53.560;9.940;2023-04-03T11:33:31;7.30;1.00
4673;DHT22;61885;53.560;9.940;2023-04-03T11:36:05;7.30;1.00
4673;DHT22;61885;53.560;9.940;2023-04-03T11:38:39;7.40;1.00
4673;DHT22;61885;53.560;9.940;2023-04-03T11:41:11;7.40;1.00
4673;DHT22;61885;53.560;9.940;2023-04-03T11:43:56;7.50;1.00
4673;DHT22;61885;53.560;9.940;2023-04-03T11:46:56;7.60;1.00
4673;DHT22;61885;53.560;9.940;2023-04-03T11:49:52;7.50;1.00
4673;DHT22;61885;53.560;9.940;2023-04-03T11:55:57;7.60;1.00
4673;DHT22;61885;53.560;9.940;2023-04-03T11:58:29;8.00;1.00
4673;DHT22;61885;53.560;9.940;2023-04-03T12:01:08;8.20;1.00
4673;DHT22;61885;53.560;9.940;2023-04-03T12:04:04;8.40;1.00
4673;DHT22;61885;53.560;9.940;2023-04-03T12:10:14;8.50;1.00
4673;DHT22;61885;53.560;9.940;2023-04-03T12:12:59;8.30;1.00
4673;DHT22;61885;53.560;9.940;2023-04-03T12:15:52;8.40;1.00
4673;DHT22;61885;53.560;9.940;2023-04-03T12:19:02;8.60;1.00
4673;DHT22;61885;53.560;9.940;2023-04-03T12:24:37;9.20;1.00
4673;DHT22;61885;53.560;9.940;2023-04-03T12:27:30;9.90;1.00
4673;DHT22;61885;53.560;9.940;2023-04-03T12:30:13;10.40;1.00
4673;DHT22;61885;53.560;9.940;2023-04-03T12:35:48;11.30;1.00
4673;DHT22;61885;53.560;9.940;2023-04-03T12:38:40;12.10;1.00
4673;DHT22;61885;53.560;9.940;2023-04-03T12:41:23;11.30;1.00
4673;DHT22;61885;53.560;9.940;2023-04-03T12:44:18;10.50;1.00
4673;DHT22;61885;53.560;9.940;2023-04-03T12:46:51;10.50;1.00
4673;DHT22;61885;53.560;9.940;2023-04-03T12:49:35;10.70;1.00
4673;DHT22;61885;53.560;9.940;2023-04-03T12:52:19;11.30;1.00
4673;DHT22;61885;53.560;9.940;2023-04-03T12:54:51;11.70;1.00
4673;DHT22;61885;53.560;9.940;2023-04-03T12:57:25;11.80;1.00
4673;DHT22;61885;53.560;9.940;2023-04-03T12:59:55;11.10;1.00
4673;DHT22;61885;53.560;9.940;2023-04-03T13:02:26;10.50;1.00
4673;DHT22;61885;53.560;9.940;2023-04-03T13:04:59;9.90;1.00
4673;DHT22;61885;53.560;9.940;2023-04-03T13:07:37;9.50;1.00
4673;DHT22;61885;53.560;9.940;2023-04-03T13:10:15;9.10;1.00
4673;DHT22;61885;53.560;9.940;2023-04-03T13:12:50;10.30;1.00
4673;DHT22;61885;53.560;9.940;2023-04-03T13:15:27;11.80;1.00
4673;DHT22;61885;53.560;9.940;2023-04-03T13:17:58;12.60;1.00
4673;DHT22;61885;53.560;9.940;2023-04-03T13:20:34;12.90;1.00
4673;DHT22;61885;53.560;9.940;2023-04-03T13:23:08;13.50;1.00
4673;DHT22;61885;53.560;9.940;2023-04-03T13:25:42;13.50;1.00
4673;DHT22;61885;53.560;9.940;2023-04-03T13:28:19;13.20;1.00
4673;DHT22;61885;53.560;9.940;2023-04-03T13:31:06;12.80;1.00
4673;DHT22;61885;53.560;9.940;2023-04-03T13:33:43;13.00;1.00
4673;DHT22;61885;53.560;9.940;2023-04-03T13:36:18;14.40;1.00
4673;DHT22;61885;53.560;9.940;2023-04-03T13:39:02;15.00;1.00
4673;DHT22;61885;53.560;9.940;2023-04-03T13:41:35;14.20;1.00
4673;DHT22;61885;53.560;9.940;2023-04-03T13:44:26;13.60;1.00
4673;DHT22;61885;53.560;9.940;2023-04-03T13:46:58;14.20;1.00
4673;DHT22;61885;53.560;9.940;2023-04-03T13:49:32;13.00;1.00
4673;DHT22;61885;53.560;9.940;2023-04-03T13:52:26;12.60;1.00
4673;DHT22;61885;53.560;9.940;2023-04-03T13:55:17;11.70;1.00
4673;DHT22;61885;53.560;9.940;2023-04-03T13:57:57;11.90;1.00
4673;DHT22;61885;53.560;9.940;2023-04-03T14:00:36;11.60;1.00
4673;DHT22;61885;53.560;9.940;2023-04-03T14:03:14;11.40;1.00
4673;DHT22;61885;53.560;9.940;2023-04-03T14:05:43;10.60;1.00
4673;DHT22;61885;53.560;9.940;2023-04-03T14:08:15;11.00;1.00
4673;DHT22;61885;53.560;9.940;2023-04-03T14:10:48;11.40;1.00
4673;DHT22;61885;53.560;9.940;2023-04-03T14:13:19;11.70;1.00
4673;DHT22;61885;53.560;9.940;2023-04-03T14:15:51;11.80;1.00
4673;DHT22;61885;53.560;9.940;2023-04-03T14:18:22;11.30;1.00
4673;DHT22;61885;53.560;9.940;2023-04-03T14:20:53;11.40;1.00
4673;DHT22;61885;53.560;9.940;2023-04-03T14:23:23;10.60;1.00
4673;DHT22;61885;53.560;9.940;2023-04-03T14:25:57;9.60;1.00
4673;DHT22;61885;53.560;9.940;2023-04-03T14:28:29;9.80;1.00
4673;DHT22;61885;53.560;9.940;2023-04-03T14:31:00;10.10;1.00
4673;DHT22;61885;53.560;9.940;2023-04-03T14:33:39;10.50;1.00
4673;DHT22;61885;53.560;9.940;2023-04-03T14:36:13;11.20;1.00
4673;DHT22;61885;53.560;9.940;2023-04-03T14:38:47;11.20;1.00
4673;DHT22;61885;53.560;9.940;2023-04-03T14:41:22;12.00;1.00
4673;DHT22;61885;53.560;9.940;2023-04-03T14:43:53;11.80;1.00
4673;DHT22;61885;53.560;9.940;2023-04-03T14:46:29;10.90;1.00
4673;DHT22;61885;53.560;9.940;2023-04-03T14:48:59;11.30;1.00
4673;DHT22;61885;53.560;9.940;2023-04-03T14:51:32;11.80;1.00
4673;DHT22;61885;53.560;9.940;2023-04-03T14:54:09;11.70;1.00
4673;DHT22;61885;53.560;9.940;2023-04-03T14:56:43;12.70;1.00
4673;DHT22;61885;53.560;9.940;2023-04-03T14:59:16;13.30;1.00
4673;DHT22;61885;53.560;9.940;2023-04-03T15:01:52;13.80;1.00
4673;DHT22;61885;53.560;9.940;2023-04-03T15:04:25;13.00;1.00
4673;DHT22;61885;53.560;9.940;2023-04-03T15:06:58;11.90;1.00
4673;DHT22;61885;53.560;9.940;2023-04-03T15:09:30;11.10;1.00
4673;DHT22;61885;53.560;9.940;2023-04-03T15:12:03;11.30;1.00
4673;DHT22;61885;53.560;9.940;2023-04-03T15:14:32;13.40;1.00
4673;DHT22;61885;53.560;9.940;2023-04-03T15:17:03;14.20;1.00
4673;DHT22;61885;53.560;9.940;2023-04-03T15:19:37;14.60;1.00
4673;DHT22;61885;53.560;9.940;2023-04-03T15:22:15;13.90;1.00
4673;DHT22;61885;53.560;9.940;2023-04-03T15:24:46;12.30;1.00
4673;DHT22;61885;53.560;9.940;2023-04-03T15:27:19;11.80;1.00
4673;DHT22;61885;53.560;9.940;2023-04-03T15:29:48;12.70;1.00
4673;DHT22;61885;53.560;9.940;2023-04-03T15:32:20;12.40;1.00
4673;DHT22;61885;53.560;9.940;2023-04-03T15:34:54;13.90;1.00
4673;DHT22;61885;53.560;9.940;2023-04-03T15:37:26;14.00;1.00
4673;DHT22;61885;53.560;9.940;2023-04-03T15:40:00;15.00;1.00
4673;DHT22;61885;53.560;9.940;2023-04-03T15:42:34;16.10;1.00
4673;DHT22;61885;53.560;9.940;2023-04-03T15:45:06;17.10;1.00
4673;DHT22;61885;53.560;9.940;2023-04-03T15:47:36;17.50;1.00
4673;DHT22;61885;53.560;9.940;2023-04-03T15:50:09;16.00;1.00
4673;DHT22;61885;53.560;9.940;2023-04-03T15:52:39;15.10;1.00
4673;DHT22;61885;53.560;9.940;2023-04-03T15:55:08;16.40;1.00
4673;DHT22;61885;53.560;9.940;2023-04-03T15:57:44;16.80;1.00
4673;DHT22;61885;53.560;9.940;2023-04-03T16:00:22;17.30;1.00
4673;DHT22;61885;53.560;9.940;2023-04-03T16:02:56;16.50;1.00
4673;DHT22;61885;53.560;9.940;2023-04-03T16:05:32;15.40;1.00
4673;DHT22;61885;53.560;9.940;2023-04-03T16:08:02;16.30;1.00
4673;DHT22;61885;53.560;9.940;2023-04-03T16:10:34;17.40;1.00
4673;DHT22;61885;53.560;9.940;2023-04-03T16:13:15;17.20;1.00
4673;DHT22;61885;53.560;9.940;2023-04-03T16:15:47;17.80;1.00
4673;DHT22;61885;53.560;9.940;2023-04-03T16:18:21;17.70;1.00
4673;DHT22;61885;53.560;9.940;2023-04-03T16:20:51;17.10;1.00
4673;DHT22;61885;53.560;9.940;2023-04-03T16:23:47;17.40;1.00
4673;DHT22;61885;53.560;9.940;2023-04-03T16:26:17;16.60;1.00
4673;DHT22;61885;53.560;9.940;2023-04-03T16:28:50;15.50;1.00
4673;DHT22;61885;53.560;9.940;2023-04-03T16:31:24;14.30;1.00
4673;DHT22;61885;53.560;9.940;2023-04-03T16:33:56;13.50;1.00
4673;DHT22;61885;53.560;9.940;2023-04-03T16:36:26;14.40;1.00
4673;DHT22;61885;53.560;9.940;2023-04-03T16:38:56;14.60;1.00
4673;DHT22;61885;53.560;9.940;2023-04-03T16:41:26;14.50;1.00
4673;DHT22;61885;53.560;9.940;2023-04-03T16:44:01;14.00;1.00
4673;DHT22;61885;53.560;9.940;2023-04-03T16:46:31;12.90;1.00
4673;DHT22;61885;53.560;9.940;2023-04-03T16:49:03;11.70;1.00
4673;DHT22;61885;53.560;9.940;2023-04-03T16:51:32;11.30;1.00
4673;DHT22;61885;53.560;9.940;2023-04-03T16:54:07;10.60;1.00
4673;DHT22;61885;53.560;9.940;2023-04-03T16:56:37;10.00;1.00
4673;DHT22;61885;53.560;9.940;2023-04-03T16:59:11;9.80;1.00
4673;DHT22;61885;53.560;9.940;2023-04-03T17:01:41;10.40;1.00
4673;DHT22;61885;53.560;9.940;2023-04-03T17:04:14;11.90;1.00
4673;DHT22;61885;53.560;9.940;2023-04-03T17:06:44;12.50;1.00